createdAt,value
2019-05-09T00:00:47.043Z,99.99
2019-05-09T00:01:47.009Z,99.99
2019-05-09T00:02:46.969Z,99.99
2019-05-09T00:03:47.023Z,99.99
2019-05-09T00:04:46.911Z,99.99
2019-05-09T00:05:46.881Z,99.99
2019-05-09T00:06:47.498Z,99.99
2019-05-09T00:07:46.873Z,99.99
2019-05-09T00:08:46.785Z,99.99
2019-05-09T00:09:46.743Z,99.99
2019-05-09T00:10:46.715Z,99.99
2019-05-09T00:11:46.694Z,99.99
2019-05-09T00:12:46.652Z,99.99
2019-05-09T00:13:46.615Z,99.99
2019-05-09T00:14:46.583Z,99.99
2019-05-09T00:15:46.581Z,99.99
2019-05-09T00:16:46.531Z,99.99
2019-05-09T00:17:46.484Z,99.99
2019-05-09T00:18:46.454Z,99.99
2019-05-09T00:19:46.425Z,99.99
2019-05-09T00:20:46.395Z,99.99
2019-05-09T00:21:46.352Z,99.99
2019-05-09T00:22:46.329Z,99.99
2019-05-09T00:23:46.294Z,99.99
2019-05-09T00:24:46.258Z,99.99
2019-05-09T00:25:46.226Z,99.99
2019-05-09T00:26:46.195Z,99.99
2019-05-09T00:27:46.161Z,99.99
2019-05-09T00:28:46.124Z,99.99
2019-05-09T00:29:46.092Z,99.99
2019-05-09T00:30:46.064Z,99.99
2019-05-09T00:31:46.031Z,99.99
2019-05-09T00:32:45.995Z,99.99
2019-05-09T00:33:48.064Z,99.99
2019-05-09T00:34:45.978Z,99.99
2019-05-09T00:35:45.896Z,99.99
2019-05-09T00:36:45.863Z,99.99
2019-05-09T00:37:45.832Z,99.99
2019-05-09T00:38:45.860Z,99.99
2019-05-09T00:39:45.777Z,99.99
2019-05-09T00:40:55.286Z,99.99
2019-05-09T00:41:45.700Z,99.99
2019-05-09T00:42:45.667Z,99.99
2019-05-09T00:43:45.635Z,99.99
2019-05-09T00:44:45.608Z,99.99
2019-05-09T00:45:45.575Z,99.99
2019-05-09T00:46:45.541Z,99.99
2019-05-09T00:47:45.506Z,99.99
2019-05-09T00:48:45.471Z,99.99
2019-05-09T00:49:45.442Z,99.99
2019-05-09T00:50:45.410Z,99.99
2019-05-09T00:51:45.371Z,99.99
2019-05-09T00:52:45.344Z,99.99
2019-05-09T00:53:45.302Z,99.99
2019-05-09T00:54:45.275Z,99.99
2019-05-09T00:55:45.241Z,99.99
2019-05-09T00:56:45.212Z,99.99
2019-05-09T00:57:45.177Z,99.99
2019-05-09T00:58:45.161Z,99.99
2019-05-09T00:59:45.111Z,99.99
2019-05-09T01:00:45.077Z,99.99
2019-05-09T01:01:45.051Z,99.99
2019-05-09T01:02:45.012Z,99.99
2019-05-09T01:03:44.973Z,99.99
2019-05-09T01:04:44.948Z,99.99
2019-05-09T01:05:47.473Z,99.99
2019-05-09T01:06:44.882Z,99.99
2019-05-09T01:07:44.856Z,99.99
2019-05-09T01:08:44.820Z,99.99
2019-05-09T01:09:44.788Z,99.99
2019-05-09T01:10:44.751Z,99.99
2019-05-09T01:11:44.731Z,99.99
2019-05-09T01:12:44.685Z,99.99
2019-05-09T01:13:44.647Z,99.99
2019-05-09T01:14:44.617Z,99.99
2019-05-09T01:15:44.591Z,99.99
2019-05-09T01:16:44.561Z,99.99
2019-05-09T01:17:44.519Z,99.99
2019-05-09T01:18:44.489Z,99.99
2019-05-09T01:19:44.457Z,99.99
2019-05-09T01:20:44.426Z,99.99
2019-05-09T01:21:44.391Z,99.99
2019-05-09T01:22:44.364Z,99.99
2019-05-09T01:23:44.324Z,99.99
2019-05-09T01:24:44.371Z,99.99
2019-05-09T01:25:44.262Z,99.99
2019-05-09T01:26:44.234Z,99.99
2019-05-09T01:27:44.198Z,99.99
2019-05-09T01:28:44.339Z,99.99
2019-05-09T01:29:44.132Z,99.99
2019-05-09T01:30:44.113Z,99.99
2019-05-09T01:31:44.073Z,99.99
2019-05-09T01:32:44.037Z,99.99
2019-05-09T01:33:44.052Z,99.99
2019-05-09T01:34:43.969Z,99.99
2019-05-09T01:35:43.960Z,99.99
2019-05-09T01:36:43.897Z,99.99
2019-05-09T01:37:43.865Z,99.99
2019-05-09T01:38:43.839Z,99.99
2019-05-09T01:39:44.123Z,99.99
2019-05-09T01:40:43.993Z,99.99
2019-05-09T01:41:43.741Z,99.99
2019-05-09T01:42:43.702Z,99.99
2019-05-09T01:43:44.306Z,99.99
2019-05-09T01:44:44.129Z,99.99
2019-05-09T01:45:45.279Z,99.99
2019-05-09T01:46:43.702Z,99.99
2019-05-09T01:47:43.547Z,99.99
2019-05-09T01:48:43.558Z,99.99
2019-05-09T01:49:43.476Z,99.99
2019-05-09T01:50:43.442Z,99.99
2019-05-09T01:51:44.505Z,99.99
2019-05-09T01:52:43.866Z,99.99
2019-05-09T01:53:43.774Z,99.99
2019-05-09T01:54:43.602Z,99.99
2019-05-09T01:55:43.318Z,99.99
2019-05-09T01:56:43.246Z,99.99
2019-05-09T01:57:47.248Z,99.99
2019-05-09T01:58:43.277Z,99.99
2019-05-09T01:59:44.377Z,99.99
2019-05-09T02:00:43.646Z,99.99
2019-05-09T02:01:43.502Z,99.99
2019-05-09T02:02:43.366Z,99.99
2019-05-09T02:03:44.332Z,99.99
2019-05-09T02:04:43.950Z,99.99
2019-05-09T02:05:43.508Z,99.99
2019-05-09T02:06:44.035Z,99.99
2019-05-09T02:07:43.854Z,99.99
2019-05-09T02:08:43.838Z,99.99
2019-05-09T02:09:43.469Z,99.99
2019-05-09T02:10:44.154Z,99.99
2019-05-09T02:11:45.419Z,99.99
2019-05-09T02:12:43.108Z,99.99
2019-05-09T02:13:44.218Z,99.99
2019-05-09T02:14:43.731Z,99.99
2019-05-09T02:15:43.443Z,99.99
2019-05-09T02:16:43.247Z,99.99
2019-05-09T02:17:55.848Z,99.99
2019-05-09T02:18:44.068Z,99.99
2019-05-09T02:19:43.976Z,99.99
2019-05-09T02:20:43.903Z,99.99
2019-05-09T02:21:43.722Z,99.99
2019-05-09T02:22:43.484Z,99.99
2019-05-09T02:23:43.182Z,99.99
2019-05-09T02:24:44.080Z,99.99
2019-05-09T02:25:43.798Z,99.99
2019-05-09T02:26:43.904Z,99.99
2019-05-09T02:27:43.675Z,99.99
2019-05-09T02:28:43.236Z,99.99
2019-05-09T02:29:43.986Z,99.99
2019-05-09T02:30:44.990Z,99.99
2019-05-09T02:31:44.564Z,99.99
2019-05-09T02:32:44.753Z,99.99
2019-05-09T02:33:45.296Z,99.99
2019-05-09T02:34:44.293Z,99.99
2019-05-09T02:35:56.279Z,99.99
2019-05-09T02:36:41.929Z,99.99
2019-05-09T02:37:41.900Z,99.99
2019-05-09T02:38:41.868Z,99.99
2019-05-09T02:39:41.829Z,99.99
2019-05-09T02:40:41.803Z,99.99
2019-05-09T02:41:59.559Z,99.99
2019-05-09T02:42:41.738Z,99.99
2019-05-09T02:43:41.695Z,99.99
2019-05-09T02:44:41.662Z,99.99
2019-05-09T02:45:41.629Z,99.99
2019-05-09T02:46:41.598Z,99.99
2019-05-09T02:47:41.559Z,99.99
2019-05-09T02:48:41.537Z,99.99
2019-05-09T02:49:41.488Z,99.99
2019-05-09T02:50:41.466Z,99.99
2019-05-09T02:51:41.425Z,99.99
2019-05-09T02:52:41.401Z,99.99
2019-05-09T02:53:41.367Z,99.99
2019-05-09T02:54:41.334Z,99.99
2019-05-09T02:55:41.296Z,99.99
2019-05-09T02:56:41.255Z,99.99
2019-05-09T02:57:41.226Z,99.99
2019-05-09T02:58:41.192Z,99.99
2019-05-09T02:59:41.158Z,99.99
2019-05-09T03:00:41.129Z,99.99
2019-05-09T03:01:41.096Z,99.99
2019-05-09T03:02:41.065Z,99.99
2019-05-09T03:03:41.036Z,99.99
2019-05-09T03:04:40.993Z,99.99
2019-05-09T03:05:40.962Z,99.99
2019-05-09T03:06:40.925Z,99.99
2019-05-09T03:07:40.897Z,99.99
2019-05-09T03:08:40.857Z,99.99
2019-05-09T03:09:40.825Z,99.99
2019-05-09T03:10:40.797Z,99.99
2019-05-09T03:11:40.779Z,99.99
2019-05-09T03:12:40.728Z,99.99
2019-05-09T03:13:40.694Z,99.99
2019-05-09T03:14:40.686Z,99.99
2019-05-09T03:15:40.625Z,99.99
2019-05-09T03:16:40.591Z,99.99
2019-05-09T03:17:40.581Z,99.99
2019-05-09T03:18:40.528Z,99.99
2019-05-09T03:19:40.493Z,99.99
2019-05-09T03:20:40.459Z,99.99
2019-05-09T03:21:40.433Z,99.99
2019-05-09T03:22:40.415Z,99.99
2019-05-09T03:23:40.378Z,99.99
2019-05-09T03:24:40.355Z,99.99
2019-05-09T03:25:41.102Z,99.99
2019-05-09T03:26:40.259Z,99.99
2019-05-09T03:27:40.230Z,99.99
2019-05-09T03:28:40.190Z,99.99
2019-05-09T03:29:40.161Z,99.99
2019-05-09T03:30:40.123Z,99.99
2019-05-09T03:31:40.096Z,99.99
2019-05-09T03:32:40.063Z,99.99
2019-05-09T03:33:40.883Z,99.99
2019-05-09T03:34:39.992Z,99.99
2019-05-09T03:35:39.962Z,99.99
2019-05-09T03:36:39.932Z,99.99
2019-05-09T03:37:39.898Z,99.99
2019-05-09T03:38:39.862Z,99.99
2019-05-09T03:39:39.823Z,99.99
2019-05-09T03:40:39.788Z,99.99
2019-05-09T03:41:39.755Z,99.99
2019-05-09T03:42:43.638Z,99.99
2019-05-09T03:43:39.689Z,99.99
2019-05-09T03:44:39.654Z,99.99
2019-05-09T03:45:39.621Z,99.99
2019-05-09T03:46:39.595Z,99.99
2019-05-09T03:47:39.557Z,99.99
2019-05-09T03:48:39.522Z,99.99
2019-05-09T03:49:39.491Z,99.99
2019-05-09T03:50:39.457Z,99.99
2019-05-09T03:51:39.420Z,99.99
2019-05-09T03:52:39.387Z,99.99
2019-05-09T03:53:39.349Z,99.99
2019-05-09T03:54:39.328Z,99.99
2019-05-09T03:55:39.290Z,99.99
2019-05-09T03:56:39.262Z,99.99
2019-05-09T03:57:39.222Z,99.99
2019-05-09T03:58:39.193Z,99.99
2019-05-09T03:59:39.148Z,99.99
2019-05-09T04:00:39.121Z,99.99
2019-05-09T04:01:39.085Z,99.99
2019-05-09T04:02:39.057Z,99.99
2019-05-09T04:03:39.019Z,99.99
2019-05-09T04:04:38.983Z,99.99
2019-05-09T04:05:38.963Z,99.99
2019-05-09T04:06:39.294Z,99.99
2019-05-09T04:07:38.880Z,99.99
2019-05-09T04:08:38.850Z,99.99
2019-05-09T04:09:39.745Z,99.99
2019-05-09T04:10:38.793Z,99.99
2019-05-09T04:11:38.748Z,99.99
2019-05-09T04:12:52.730Z,99.99
2019-05-09T04:13:38.676Z,99.99
2019-05-09T04:14:38.652Z,99.99
2019-05-09T04:15:38.619Z,99.99
2019-05-09T04:16:38.583Z,99.99
2019-05-09T04:17:38.549Z,99.99
2019-05-09T04:18:40.309Z,99.99
2019-05-09T04:19:40.533Z,99.99
2019-05-09T04:20:38.451Z,99.99
2019-05-09T04:21:38.471Z,99.99
2019-05-09T04:22:38.635Z,99.99
2019-05-09T04:23:38.360Z,99.99
2019-05-09T04:24:38.394Z,99.99
2019-05-09T04:25:38.282Z,99.99
2019-05-09T04:26:38.246Z,99.99
2019-05-09T04:27:38.282Z,99.99
2019-05-09T04:28:39.887Z,99.99
2019-05-09T04:29:38.150Z,99.99
2019-05-09T04:30:38.124Z,99.99
2019-05-09T04:31:38.440Z,99.99
2019-05-09T04:32:38.048Z,99.99
2019-05-09T04:33:38.378Z,99.99
2019-05-09T04:34:38.241Z,99.99
2019-05-09T04:35:38.315Z,99.99
2019-05-09T04:36:37.914Z,99.99
2019-05-09T04:37:38.070Z,99.99
2019-05-09T04:38:39.935Z,99.99
2019-05-09T04:39:38.716Z,99.99
2019-05-09T04:40:44.599Z,99.99
2019-05-09T04:41:38.523Z,99.99
2019-05-09T04:42:42.801Z,99.99
2019-05-09T04:43:39.600Z,99.99
2019-05-09T04:44:37.642Z,99.99
2019-05-09T04:45:40.826Z,99.99
2019-05-09T04:46:37.824Z,99.99
2019-05-09T04:47:39.383Z,99.99
2019-05-09T04:48:37.744Z,99.99
2019-05-09T04:49:41.106Z,99.99
2019-05-09T04:50:37.702Z,99.99
2019-05-09T04:51:39.334Z,99.99
2019-05-09T04:52:39.821Z,99.99
2019-05-09T04:53:39.791Z,99.99
2019-05-09T04:54:38.460Z,99.99
2019-05-09T04:55:37.671Z,99.99
2019-05-09T04:56:38.193Z,99.99
2019-05-09T04:57:38.270Z,99.99
2019-05-09T04:58:37.695Z,99.99
2019-05-09T04:59:37.470Z,99.99
2019-05-09T05:00:37.709Z,99.99
2019-05-09T05:01:38.965Z,99.99
2019-05-09T05:02:38.025Z,99.99
2019-05-09T05:03:37.616Z,99.99
2019-05-09T05:04:37.435Z,99.99
2019-05-09T05:05:37.175Z,99.99
2019-05-09T05:06:40.354Z,99.99
2019-05-09T05:07:37.626Z,99.99
2019-05-09T05:08:37.520Z,99.99
2019-05-09T05:09:37.967Z,99.99
2019-05-09T05:10:37.354Z,99.99
2019-05-09T05:11:38.358Z,99.99
2019-05-09T05:12:38.085Z,99.99
2019-05-09T05:13:38.328Z,99.99
2019-05-09T05:14:38.454Z,99.99
2019-05-09T05:15:37.790Z,99.99
2019-05-09T05:16:39.221Z,99.99
2019-05-09T05:17:37.766Z,99.99
2019-05-09T05:18:37.418Z,99.99
2019-05-09T05:19:38.339Z,99.99
2019-05-09T05:20:37.987Z,99.99
2019-05-09T05:21:37.808Z,99.99
2019-05-09T05:22:38.535Z,99.99
2019-05-09T05:23:38.091Z,99.99
2019-05-09T05:24:38.146Z,99.99
2019-05-09T05:25:38.196Z,99.99
2019-05-09T05:26:38.036Z,99.99
2019-05-09T05:27:38.222Z,99.99
2019-05-09T05:28:38.122Z,99.99
2019-05-09T05:29:38.176Z,99.99
2019-05-09T05:30:37.362Z,99.99
2019-05-09T05:31:36.074Z,99.99
2019-05-09T05:32:38.454Z,99.99
2019-05-09T05:33:38.175Z,99.99
2019-05-09T05:34:37.771Z,99.99
2019-05-09T05:35:37.584Z,99.99
2019-05-09T05:36:38.239Z,99.99
2019-05-09T05:37:38.416Z,99.99
2019-05-09T05:38:37.676Z,99.99
2019-05-09T05:39:37.519Z,99.99
2019-05-09T05:40:43.695Z,99.99
2019-05-09T05:41:37.810Z,99.99
2019-05-09T05:42:38.549Z,99.99
2019-05-09T05:43:43.319Z,99.99
2019-05-09T05:44:35.647Z,99.99
2019-05-09T05:45:37.497Z,99.99
2019-05-09T05:46:37.812Z,99.99
2019-05-09T05:47:37.802Z,99.99
2019-05-09T05:48:35.511Z,99.99
2019-05-09T05:49:35.495Z,99.99
2019-05-09T05:50:35.451Z,99.99
2019-05-09T05:51:35.420Z,99.99
2019-05-09T05:52:37.408Z,99.99
2019-05-09T05:53:35.459Z,99.99
2019-05-09T05:54:37.661Z,99.99
2019-05-09T05:55:37.809Z,99.99
2019-05-09T05:56:35.258Z,99.99
2019-05-09T05:57:35.231Z,99.99
2019-05-09T05:58:35.187Z,99.99
2019-05-09T05:59:38.212Z,99.99
2019-05-09T06:00:35.122Z,99.99
2019-05-09T06:01:35.091Z,99.99
2019-05-09T06:02:35.130Z,99.99
2019-05-09T06:03:37.497Z,99.99
2019-05-09T06:04:34.996Z,99.99
2019-05-09T06:05:34.964Z,99.99
2019-05-09T06:06:37.348Z,99.99
2019-05-09T06:07:34.894Z,99.99
2019-05-09T06:08:34.865Z,99.99
2019-05-09T06:09:34.828Z,99.99
2019-05-09T06:10:34.804Z,99.99
2019-05-09T06:11:34.769Z,99.99
2019-05-09T06:12:34.732Z,99.99
2019-05-09T06:13:34.704Z,99.99
2019-05-09T06:14:34.677Z,99.99
2019-05-09T06:15:34.649Z,99.99
2019-05-09T06:16:34.609Z,99.99
2019-05-09T06:17:34.591Z,99.99
2019-05-09T06:18:34.544Z,99.99
2019-05-09T06:19:34.505Z,99.99
2019-05-09T06:20:34.472Z,99.99
2019-05-09T06:21:34.441Z,99.99
2019-05-09T06:22:34.420Z,99.99
2019-05-09T06:23:34.381Z,99.99
2019-05-09T06:24:34.351Z,99.99
2019-05-09T06:25:34.329Z,99.99
2019-05-09T06:26:34.285Z,99.99
2019-05-09T06:27:34.255Z,99.99
2019-05-09T06:28:34.236Z,99.99
2019-05-09T06:29:34.187Z,99.99
2019-05-09T06:30:34.278Z,99.99
2019-05-09T06:31:34.127Z,99.99
2019-05-09T06:32:34.091Z,99.99
2019-05-09T06:33:34.090Z,99.99
2019-05-09T06:34:34.041Z,99.99
2019-05-09T06:35:33.993Z,99.99
2019-05-09T06:36:33.966Z,99.99
2019-05-09T06:37:33.936Z,99.99
2019-05-09T06:38:33.903Z,99.99
2019-05-09T06:39:33.869Z,99.99
2019-05-09T06:40:33.841Z,99.99
2019-05-09T06:41:33.937Z,99.99
2019-05-09T06:42:33.778Z,99.99
2019-05-09T06:43:33.746Z,99.99
2019-05-09T06:44:33.713Z,99.99
2019-05-09T06:45:33.683Z,99.99
2019-05-09T06:46:33.766Z,99.99
2019-05-09T06:47:33.623Z,99.99
2019-05-09T06:48:33.594Z,99.99
2019-05-09T06:49:33.557Z,99.99
2019-05-09T06:50:33.525Z,99.99
2019-05-09T06:51:33.601Z,99.99
2019-05-09T06:52:33.459Z,99.99
2019-05-09T06:53:33.427Z,99.99
2019-05-09T06:54:33.392Z,99.99
2019-05-09T06:55:33.373Z,99.99
2019-05-09T06:56:35.006Z,99.99
2019-05-09T06:57:33.300Z,99.99
2019-05-09T06:58:33.267Z,99.99
2019-05-09T06:59:33.240Z,99.99
2019-05-09T07:00:33.208Z,99.99
2019-05-09T07:01:33.177Z,99.99
2019-05-09T07:02:33.144Z,99.99
2019-05-09T07:03:33.105Z,99.99
2019-05-09T07:04:33.078Z,99.99
2019-05-09T07:05:33.047Z,99.99
2019-05-09T07:06:33.012Z,99.99
2019-05-09T07:07:32.988Z,99.99
2019-05-09T07:08:32.950Z,99.99
2019-05-09T07:09:32.920Z,99.99
2019-05-09T07:10:32.888Z,99.99
2019-05-09T07:11:32.852Z,99.99
2019-05-09T07:12:32.832Z,99.99
2019-05-09T07:13:32.802Z,99.99
2019-05-09T07:14:34.783Z,99.99
2019-05-09T07:15:32.739Z,99.99
2019-05-09T07:16:32.701Z,99.99
2019-05-09T07:17:32.671Z,99.99
2019-05-09T07:18:32.688Z,99.99
2019-05-09T07:19:32.610Z,99.99
2019-05-09T07:20:32.575Z,99.99
2019-05-09T07:21:32.539Z,99.99
2019-05-09T07:22:32.518Z,99.99
2019-05-09T07:23:32.668Z,99.99
2019-05-09T07:24:32.452Z,99.99
2019-05-09T07:25:32.419Z,99.99
2019-05-09T07:26:32.387Z,99.99
2019-05-09T07:27:32.354Z,99.99
2019-05-09T07:28:32.386Z,99.99
2019-05-09T07:29:32.294Z,99.99
2019-05-09T07:30:32.259Z,99.99
2019-05-09T07:31:32.220Z,99.99
2019-05-09T07:32:32.200Z,99.99
2019-05-09T07:33:32.159Z,99.99
2019-05-09T07:34:32.132Z,99.99
2019-05-09T07:35:32.104Z,99.99
2019-05-09T07:36:32.068Z,99.99
2019-05-09T07:37:32.037Z,99.99
2019-05-09T07:38:31.999Z,99.99
2019-05-09T07:39:31.969Z,99.99
2019-05-09T07:40:31.945Z,99.99
2019-05-09T07:41:33.679Z,99.99
2019-05-09T07:42:31.874Z,99.99
2019-05-09T07:43:31.851Z,99.99
2019-05-09T07:44:45.373Z,99.99
2019-05-09T07:45:31.777Z,99.99
2019-05-09T07:46:31.755Z,99.99
2019-05-09T07:47:31.719Z,99.99
2019-05-09T07:48:31.682Z,99.99
2019-05-09T07:49:31.654Z,99.99
2019-05-09T07:50:31.625Z,99.99
2019-05-09T07:51:31.599Z,99.99
2019-05-09T07:52:31.559Z,99.99
2019-05-09T07:53:31.526Z,99.99
2019-05-09T07:54:31.502Z,99.99
2019-05-09T07:55:31.466Z,99.99
2019-05-09T07:56:31.431Z,99.99
2019-05-09T07:57:31.407Z,99.99
2019-05-09T07:58:31.374Z,99.99
2019-05-09T07:59:31.343Z,99.99
2019-05-09T08:00:31.313Z,99.99
2019-05-09T08:01:31.281Z,99.99
2019-05-09T08:02:31.295Z,99.99
2019-05-09T08:03:31.221Z,99.99
2019-05-09T08:04:31.225Z,99.99
2019-05-09T08:05:31.154Z,99.99
2019-05-09T08:06:31.123Z,99.99
2019-05-09T08:07:31.089Z,99.99
2019-05-09T08:08:31.068Z,99.99
2019-05-09T08:09:31.032Z,99.99
2019-05-09T08:10:33.235Z,99.99
2019-05-09T08:11:32.366Z,99.99
2019-05-09T08:12:30.950Z,99.99
2019-05-09T08:13:30.909Z,99.99
2019-05-09T08:14:30.882Z,99.99
2019-05-09T08:15:30.850Z,99.99
2019-05-09T08:16:30.816Z,99.99
2019-05-09T08:17:30.859Z,99.99
2019-05-09T08:18:30.777Z,99.99
2019-05-09T08:19:30.787Z,99.99
2019-05-09T08:20:30.774Z,99.99
2019-05-09T08:21:30.664Z,99.99
2019-05-09T08:22:32.548Z,99.99
2019-05-09T08:23:30.607Z,99.99
2019-05-09T08:24:30.578Z,99.99
2019-05-09T08:25:30.606Z,99.99
2019-05-09T08:26:30.555Z,99.99
2019-05-09T08:27:30.536Z,99.99
2019-05-09T08:28:30.514Z,99.99
2019-05-09T08:29:30.419Z,99.99
2019-05-09T08:30:35.820Z,99.99
2019-05-09T08:31:30.365Z,99.99
2019-05-09T08:32:30.343Z,99.99
2019-05-09T08:33:30.297Z,99.99
2019-05-09T08:34:30.278Z,99.99
2019-05-09T08:35:30.239Z,99.99
2019-05-09T08:36:30.217Z,99.99
2019-05-09T08:37:30.182Z,99.99
2019-05-09T08:38:30.154Z,99.99
2019-05-09T08:39:30.121Z,99.99
2019-05-09T08:40:30.098Z,99.99
2019-05-09T08:41:30.067Z,99.99
2019-05-09T08:42:30.045Z,99.99
2019-05-09T08:43:30.004Z,99.99
2019-05-09T08:44:31.325Z,99.99
2019-05-09T08:45:31.569Z,99.99
2019-05-09T08:46:29.910Z,99.99
2019-05-09T08:47:29.882Z,99.99
2019-05-09T08:48:29.851Z,99.99
2019-05-09T08:49:29.830Z,99.99
2019-05-09T08:50:29.850Z,99.99
2019-05-09T08:51:36.952Z,99.99
2019-05-09T08:52:29.741Z,99.99
2019-05-09T08:53:29.710Z,99.99
2019-05-09T08:54:29.686Z,99.99
2019-05-09T08:55:29.661Z,99.99
2019-05-09T08:56:29.616Z,99.99
2019-05-09T08:57:29.590Z,99.99
2019-05-09T08:58:29.563Z,99.99
2019-05-09T08:59:29.527Z,99.99
2019-05-09T09:00:29.494Z,99.99
2019-05-09T09:01:47.681Z,99.99
2019-05-09T09:02:29.436Z,99.99
2019-05-09T09:03:29.414Z,99.99
2019-05-09T09:04:29.564Z,99.99
2019-05-09T09:05:29.347Z,99.99
2019-05-09T09:06:29.319Z,99.99
2019-05-09T09:07:29.824Z,99.99
2019-05-09T09:08:29.264Z,99.99
2019-05-09T09:09:29.230Z,99.99
2019-05-09T09:10:29.321Z,99.99
2019-05-09T09:11:29.180Z,99.99
2019-05-09T09:12:34.193Z,99.99
2019-05-09T09:13:29.119Z,99.99
2019-05-09T09:14:29.089Z,99.99
2019-05-09T09:15:55.778Z,99.99
2019-05-09T09:16:29.022Z,99.99
2019-05-09T09:17:29.008Z,99.99
2019-05-09T09:18:28.968Z,99.99
2019-05-09T09:19:28.940Z,99.99
2019-05-09T09:20:29.092Z,99.99
2019-05-09T09:21:28.891Z,99.99
2019-05-09T09:22:28.852Z,99.99
2019-05-09T09:23:43.194Z,99.99
2019-05-09T09:24:28.788Z,99.99
2019-05-09T09:25:28.879Z,99.99
2019-05-09T09:26:28.730Z,99.99
2019-05-09T09:27:28.705Z,99.99
2019-05-09T09:28:28.674Z,99.99
2019-05-09T09:29:28.695Z,99.99
2019-05-09T09:30:29.465Z,99.99
2019-05-09T09:31:28.698Z,99.99
2019-05-09T09:32:28.614Z,99.99
2019-05-09T09:33:28.531Z,99.99
2019-05-09T09:34:30.008Z,99.99
2019-05-09T09:35:28.499Z,99.99
2019-05-09T09:36:28.479Z,99.99
2019-05-09T09:37:43.997Z,99.99
2019-05-09T09:38:28.393Z,99.99
2019-05-09T09:39:31.196Z,99.99
2019-05-09T09:40:28.335Z,99.99
2019-05-09T09:41:28.831Z,99.99
2019-05-09T09:42:28.495Z,99.99
2019-05-09T09:43:28.287Z,99.99
2019-05-09T09:44:28.823Z,99.99
2019-05-09T09:45:28.346Z,99.99
2019-05-09T09:46:28.697Z,99.05
2019-05-09T09:47:28.716Z,99.99
2019-05-09T09:48:28.516Z,99.99
2019-05-09T09:49:29.272Z,99.99
2019-05-09T09:50:28.043Z,98.82
2019-05-09T09:51:28.013Z,99.20
2019-05-09T09:52:29.320Z,98.53
2019-05-09T09:53:27.999Z,98.28
2019-05-09T09:54:28.225Z,99.44
2019-05-09T09:55:28.041Z,99.01
2019-05-09T09:56:28.370Z,98.14
2019-05-09T09:57:28.875Z,97.81
2019-05-09T09:58:27.827Z,98.53
2019-05-09T09:59:28.286Z,98.48
2019-05-09T10:00:27.765Z,98.48
2019-05-09T10:01:28.824Z,99.15
2019-05-09T10:02:28.083Z,98.86
2019-05-09T10:03:27.688Z,98.57
2019-05-09T10:04:28.411Z,98.67
2019-05-09T10:05:27.855Z,99.53
2019-05-09T10:06:28.434Z,98.86
2019-05-09T10:07:28.009Z,99.49
2019-05-09T10:08:27.551Z,99.39
2019-05-09T10:09:27.509Z,98.82
2019-05-09T10:10:28.666Z,97.81
2019-05-09T10:11:28.598Z,97.81
2019-05-09T10:12:28.552Z,98.77
2019-05-09T10:13:28.596Z,99.99
2019-05-09T10:14:28.442Z,99.91
2019-05-09T10:15:28.194Z,99.99
2019-05-09T10:16:32.333Z,99.91
2019-05-09T10:17:28.105Z,99.99
2019-05-09T10:18:27.736Z,99.49
2019-05-09T10:19:27.828Z,97.42
2019-05-09T10:20:29.231Z,96.85
2019-05-09T10:21:27.661Z,96.42
2019-05-09T10:22:27.332Z,95.50
2019-05-09T10:23:27.120Z,96.27
2019-05-09T10:24:28.101Z,96.27
2019-05-09T10:25:27.646Z,96.18
2019-05-09T10:26:28.395Z,95.41
2019-05-09T10:27:28.375Z,96.51
2019-05-09T10:28:30.148Z,96.32
2019-05-09T10:29:27.925Z,96.85
2019-05-09T10:30:28.536Z,96.37
2019-05-09T10:31:28.318Z,96.37
2019-05-09T10:32:28.883Z,97.33
2019-05-09T10:33:28.025Z,95.41
2019-05-09T10:34:28.786Z,95.50
2019-05-09T10:35:27.916Z,96.75
2019-05-09T10:36:27.883Z,95.41
2019-05-09T10:37:26.739Z,94.88
2019-05-09T10:38:27.984Z,94.69
2019-05-09T10:39:27.667Z,95.75
2019-05-09T10:40:28.131Z,95.46
2019-05-09T10:41:26.632Z,96.22
2019-05-09T10:42:28.643Z,97.28
2019-05-09T10:43:35.932Z,96.85
2019-05-09T10:44:28.398Z,97.24
2019-05-09T10:45:26.519Z,96.27
2019-05-09T10:46:39.114Z,95.50
2019-05-09T10:47:27.295Z,96.32
2019-05-09T10:48:28.284Z,95.84
2019-05-09T10:49:26.415Z,95.65
2019-05-09T10:50:32.846Z,96.22
2019-05-09T10:51:26.356Z,94.49
2019-05-09T10:52:28.368Z,95.55
2019-05-09T10:53:28.376Z,95.65
2019-05-09T10:54:27.885Z,94.88
2019-05-09T10:55:28.400Z,94.21
2019-05-09T10:56:28.077Z,94.31
2019-05-09T10:57:30.928Z,94.40
2019-05-09T10:58:28.004Z,93.44
2019-05-09T10:59:26.139Z,93.44
2019-05-09T11:00:28.739Z,91.56
2019-05-09T11:01:26.159Z,92.72
2019-05-09T11:02:27.923Z,91.56
2019-05-09T11:03:26.026Z,90.03
2019-05-09T11:04:28.631Z,90.51
2019-05-09T11:05:27.751Z,88.10
2019-05-09T11:06:28.459Z,89.16
2019-05-09T11:07:25.916Z,89.50
2019-05-09T11:08:26.335Z,88.34
2019-05-09T11:09:28.864Z,87.29
2019-05-09T11:10:30.128Z,87.52
2019-05-09T11:11:28.189Z,86.13
2019-05-09T11:12:27.615Z,86.04
2019-05-09T11:13:28.519Z,87.76
2019-05-09T11:14:36.179Z,87.42
2019-05-09T11:15:25.699Z,87.57
2019-05-09T11:16:39.673Z,88.77
2019-05-09T11:17:25.654Z,88.15
2019-05-09T11:18:25.631Z,87.48
2019-05-09T11:19:25.605Z,87.76
2019-05-09T11:20:28.226Z,87.19
2019-05-09T11:21:28.105Z,90.17
2019-05-09T11:22:25.526Z,90.99
2019-05-09T11:23:25.489Z,89.16
2019-05-09T11:24:40.576Z,88.87
2019-05-09T11:25:27.645Z,88.73
2019-05-09T11:26:28.159Z,90.17
2019-05-09T11:27:28.109Z,90.89
2019-05-09T11:28:25.419Z,89.40
2019-05-09T11:29:25.338Z,89.64
2019-05-09T11:30:25.312Z,88.10
2019-05-09T11:31:25.283Z,87.42
2019-05-09T11:32:27.455Z,86.22
2019-05-09T11:33:27.545Z,86.71
2019-05-09T11:34:25.201Z,88.30
2019-05-09T11:35:25.177Z,88.49
2019-05-09T11:36:25.143Z,89.93
2019-05-09T11:37:25.117Z,90.89
2019-05-09T11:38:32.039Z,90.70
2019-05-09T11:39:35.586Z,91.66
2019-05-09T11:40:25.039Z,91.23
2019-05-09T11:41:25.013Z,92.29
2019-05-09T11:42:24.988Z,93.87
2019-05-09T11:43:24.961Z,95.41
2019-05-09T11:44:27.150Z,95.03
2019-05-09T11:45:24.911Z,94.59
2019-05-09T11:46:24.878Z,94.93
2019-05-09T11:47:33.626Z,94.83
2019-05-09T11:48:24.826Z,95.03
2019-05-09T11:49:24.795Z,94.88
2019-05-09T11:50:24.773Z,95.84
2019-05-09T11:51:24.740Z,95.84
2019-05-09T11:52:24.717Z,95.07
2019-05-09T11:53:24.697Z,96.27
2019-05-09T11:54:24.669Z,96.27
2019-05-09T11:55:32.706Z,96.85
2019-05-09T11:56:24.613Z,97.23
2019-05-09T11:57:27.645Z,96.27
2019-05-09T11:58:24.550Z,97.04
2019-05-09T11:59:24.527Z,97.19
2019-05-09T12:00:24.513Z,95.94
2019-05-09T12:01:24.474Z,95.98
2019-05-09T12:02:24.491Z,95.98
2019-05-09T12:03:24.474Z,96.18
2019-05-09T12:04:24.394Z,96.18
2019-05-09T12:05:24.383Z,96.27
2019-05-09T12:06:24.341Z,96.32
2019-05-09T12:07:24.305Z,96.51
2019-05-09T12:08:24.276Z,96.80
2019-05-09T12:09:24.298Z,96.89
2019-05-09T12:10:24.227Z,97.76
2019-05-09T12:11:24.203Z,97.47
2019-05-09T12:12:24.164Z,97.76
2019-05-09T12:13:24.139Z,97.42
2019-05-09T12:14:24.117Z,97.33
2019-05-09T12:15:24.097Z,95.89
2019-05-09T12:16:24.056Z,96.32
2019-05-09T12:17:24.038Z,95.26
2019-05-09T12:18:24.005Z,94.54
2019-05-09T12:19:23.979Z,94.83
2019-05-09T12:20:23.975Z,95.65
2019-05-09T12:21:23.931Z,94.88
2019-05-09T12:22:23.911Z,94.21
2019-05-09T12:23:23.942Z,92.43
2019-05-09T12:24:23.881Z,92.62
2019-05-09T12:25:23.889Z,92.81
2019-05-09T12:26:23.849Z,92.72
2019-05-09T12:27:23.778Z,93.01
2019-05-09T12:28:23.807Z,92.48
2019-05-09T12:29:23.738Z,92.05
2019-05-09T12:30:23.757Z,92.05
2019-05-09T12:31:23.766Z,93.29
2019-05-09T12:32:23.747Z,92.05
2019-05-09T12:33:23.688Z,91.28
2019-05-09T12:34:23.673Z,91.52
2019-05-09T12:35:23.607Z,91.22
2019-05-09T12:36:23.588Z,91.17
2019-05-09T12:37:23.546Z,90.41
2019-05-09T12:38:23.550Z,89.58
2019-05-09T12:39:23.487Z,89.20
2019-05-09T12:40:23.487Z,89.15
2019-05-09T12:41:23.471Z,89.98
2019-05-09T12:42:23.368Z,90.75
2019-05-09T12:43:23.348Z,90.41
2019-05-09T12:44:25.175Z,91.18
2019-05-09T12:45:23.375Z,93.39
2019-05-09T12:46:23.272Z,93.63
2019-05-09T12:47:23.281Z,91.47
2019-05-09T12:48:23.219Z,90.94
2019-05-09T12:49:23.191Z,89.11
2019-05-09T12:50:23.175Z,88.53
2019-05-09T12:51:23.151Z,87.71
2019-05-09T12:52:23.181Z,87.76